createdAt,value
2023-05-23T00:01:01.926Z,100.00
2023-05-23T00:03:28.865Z,100.00
2023-05-23T00:05:56.558Z,100.00
2023-05-23T00:08:23.316Z,100.00
2023-05-23T00:10:49.839Z,100.00
2023-05-23T00:13:16.297Z,100.00
2023-05-23T00:15:42.948Z,100.00
2023-05-23T00:18:13.228Z,100.00
2023-05-23T00:20:43.192Z,100.00
2023-05-23T00:23:10.159Z,100.00
2023-05-23T00:25:37.077Z,100.00
2023-05-23T00:28:04.126Z,100.00
2023-05-23T00:30:32.008Z,100.00
2023-05-23T00:32:59.015Z,100.00
2023-05-23T00:35:25.933Z,100.00
2023-05-23T00:37:52.705Z,100.00
2023-05-23T00:40:19.237Z,100.00
2023-05-23T00:42:46.486Z,100.00
2023-05-23T00:45:15.573Z,100.00
2023-05-23T00:47:42.634Z,100.00
2023-05-23T00:50:12.330Z,100.00
2023-05-23T00:52:39.338Z,100.00
2023-05-23T00:55:06.380Z,100.00
2023-05-23T00:57:34.856Z,100.00
2023-05-23T01:00:02.026Z,100.00
2023-05-23T01:02:30.173Z,100.00
2023-05-23T01:04:56.757Z,100.00
2023-05-23T01:07:23.275Z,100.00
2023-05-23T01:09:50.074Z,100.00
2023-05-23T01:12:49.564Z,100.00
2023-05-23T01:15:18.467Z,100.00
2023-05-23T01:17:47.505Z,100.00
2023-05-23T01:20:21.598Z,100.00
2023-05-23T01:22:57.035Z,100.00
2023-05-23T01:25:42.008Z,100.00
2023-05-23T01:28:11.849Z,100.00
2023-05-23T01:30:40.995Z,100.00
2023-05-23T01:33:09.272Z,100.00
2023-05-23T01:35:36.888Z,100.00
2023-05-23T01:38:03.435Z,100.00
2023-05-23T01:40:29.960Z,100.00
2023-05-23T01:42:57.447Z,100.00
2023-05-23T01:45:26.665Z,100.00
2023-05-23T01:47:54.108Z,100.00
2023-05-23T01:50:20.778Z,100.00
2023-05-23T01:52:47.656Z,100.00
2023-05-23T01:55:18.716Z,100.00
2023-05-23T01:57:49.602Z,100.00
2023-05-23T02:00:16.648Z,100.00
2023-05-23T02:02:43.193Z,100.00
2023-05-23T02:05:11.067Z,100.00
2023-05-23T02:07:37.591Z,100.00
2023-05-23T02:10:06.556Z,100.00
2023-05-23T02:12:32.992Z,100.00
2023-05-23T02:14:59.451Z,100.00
2023-05-23T02:17:26.254Z,100.00
2023-05-23T02:19:52.857Z,100.00
2023-05-23T02:22:23.502Z,100.00
2023-05-23T02:24:50.221Z,100.00
2023-05-23T02:27:16.682Z,100.00
2023-05-23T02:29:43.140Z,100.00
2023-05-23T02:32:09.667Z,100.00
2023-05-23T02:34:36.131Z,100.00
2023-05-23T02:37:02.587Z,100.00
2023-05-23T02:39:29.071Z,100.00
2023-05-23T02:41:55.506Z,100.00
2023-05-23T02:44:22.003Z,100.00
2023-05-23T02:46:48.475Z,100.00
2023-05-23T02:49:14.927Z,100.00
2023-05-23T02:51:41.400Z,100.00
2023-05-23T02:54:07.908Z,100.00
2023-05-23T02:56:34.576Z,100.00
2023-05-23T02:59:01.026Z,100.00
2023-05-23T03:01:27.610Z,100.00
2023-05-23T03:03:54.185Z,100.00
2023-05-23T03:06:22.661Z,100.00
2023-05-23T03:08:49.317Z,100.00
2023-05-23T03:11:16.481Z,100.00
2023-05-23T03:13:43.080Z,100.00
2023-05-23T03:16:09.708Z,100.00
2023-05-23T03:18:36.375Z,100.00
2023-05-23T03:21:03.724Z,100.00
2023-05-23T03:23:30.353Z,100.00
2023-05-23T03:25:56.944Z,100.00
2023-05-23T03:28:23.538Z,100.00
2023-05-23T03:30:50.135Z,100.00
2023-05-23T03:33:16.788Z,100.00
2023-05-23T03:35:44.758Z,100.00
2023-05-23T03:38:11.344Z,100.00
2023-05-23T03:40:37.934Z,100.00
2023-05-23T03:43:06.271Z,100.00
2023-05-23T03:45:33.307Z,100.00
2023-05-23T03:48:00.403Z,100.00
2023-05-23T03:50:27.635Z,100.00
2023-05-23T03:52:54.596Z,100.00
2023-05-23T03:55:22.596Z,100.00
2023-05-23T03:57:49.887Z,100.00
2023-05-23T04:00:16.793Z,100.00
2023-05-23T04:02:44.068Z,100.00
2023-05-23T04:05:10.976Z,100.00
2023-05-23T04:07:37.695Z,100.00
2023-05-23T04:10:04.865Z,100.00
2023-05-23T04:12:31.705Z,100.00
2023-05-23T04:14:58.310Z,100.00
2023-05-23T04:17:25.888Z,100.00
2023-05-23T04:19:52.559Z,100.00
2023-05-23T04:22:19.078Z,100.00
2023-05-23T04:24:45.640Z,100.00
2023-05-23T04:27:13.627Z,100.00
2023-05-23T04:29:40.147Z,100.00
2023-05-23T04:32:07.046Z,100.00
2023-05-23T04:34:34.054Z,100.00
2023-05-23T04:37:03.989Z,100.00
2023-05-23T04:39:30.580Z,100.00
2023-05-23T04:41:57.758Z,100.00
2023-05-23T04:44:24.290Z,100.00
2023-05-23T04:46:50.776Z,100.00
2023-05-23T04:49:17.302Z,100.00
2023-05-23T04:51:43.965Z,100.00
2023-05-23T04:54:10.556Z,100.00
2023-05-23T04:56:37.181Z,100.00
2023-05-23T04:59:03.636Z,100.00
2023-05-23T05:01:31.403Z,100.00
2023-05-23T05:03:57.936Z,100.00
2023-05-23T05:06:24.789Z,100.00
2023-05-23T05:08:51.321Z,100.00
2023-05-23T05:11:17.920Z,100.00
2023-05-23T05:13:44.427Z,100.00
2023-05-23T05:16:11.017Z,100.00
2023-05-23T05:18:37.579Z,100.00
2023-05-23T05:21:04.110Z,100.00
2023-05-23T05:23:31.660Z,100.00
2023-05-23T05:25:58.136Z,100.00
2023-05-23T05:28:24.968Z,100.00
2023-05-23T05:30:54.237Z,100.00
2023-05-23T05:33:24.950Z,100.00
2023-05-23T05:35:51.848Z,100.00
2023-05-23T05:38:18.339Z,100.00
2023-05-23T05:40:45.292Z,100.00
2023-05-23T05:43:11.753Z,100.00
2023-05-23T05:45:38.262Z,100.00
2023-05-23T05:48:04.829Z,100.00
2023-05-23T05:50:31.425Z,100.00
2023-05-23T05:52:57.977Z,100.00
2023-05-23T05:55:24.440Z,100.00
2023-05-23T05:57:50.984Z,100.00
2023-05-23T06:00:19.167Z,100.00
2023-05-23T06:02:51.347Z,100.00
2023-05-23T06:05:17.981Z,100.00
2023-05-23T06:07:44.524Z,100.00
2023-05-23T06:10:13.693Z,100.00
2023-05-23T06:12:40.398Z,100.00
2023-05-23T06:15:07.569Z,100.00
2023-05-23T06:17:34.043Z,100.00
2023-05-23T06:20:00.574Z,100.00
2023-05-23T06:22:27.180Z,100.00
2023-05-23T06:24:53.749Z,100.00
2023-05-23T06:27:20.237Z,100.00
2023-05-23T06:29:46.765Z,100.00
2023-05-23T06:32:13.260Z,100.00
2023-05-23T06:34:41.008Z,100.00
2023-05-23T06:37:07.557Z,100.00
2023-05-23T06:39:34.039Z,100.00
2023-05-23T06:42:01.119Z,100.00
2023-05-23T06:44:27.604Z,100.00
2023-05-23T06:46:58.745Z,100.00
2023-05-23T06:49:25.484Z,100.00
2023-05-23T06:51:52.374Z,100.00
2023-05-23T06:54:19.405Z,100.00
2023-05-23T06:56:46.264Z,100.00
2023-05-23T06:59:12.864Z,100.00
2023-05-23T07:01:39.669Z,100.00
2023-05-23T07:04:06.436Z,100.00
2023-05-23T07:06:33.082Z,100.00
2023-05-23T07:08:59.605Z,100.00
2023-05-23T07:11:26.484Z,100.00
2023-05-23T07:13:52.979Z,100.00
2023-05-23T07:16:19.549Z,100.00
2023-05-23T07:18:46.266Z,100.00
2023-05-23T07:21:12.742Z,100.00
2023-05-23T07:23:40.880Z,100.00
2023-05-23T07:26:09.685Z,100.00
2023-05-23T07:28:37.574Z,100.00
2023-05-23T07:31:04.345Z,100.00
2023-05-23T07:33:30.971Z,100.00
2023-05-23T07:35:57.471Z,100.00
2023-05-23T07:38:23.928Z,100.00
2023-05-23T07:40:59.232Z,100.00
2023-05-23T07:43:36.950Z,100.00
2023-05-23T07:46:03.566Z,100.00
2023-05-23T07:48:30.174Z,100.00
2023-05-23T07:50:56.652Z,100.00
2023-05-23T07:53:23.096Z,100.00
2023-05-23T07:55:49.668Z,100.00
2023-05-23T07:58:16.233Z,100.00
2023-05-23T08:00:44.283Z,100.00
2023-05-23T08:03:11.809Z,100.00
2023-05-23T08:05:38.397Z,100.00
2023-05-23T08:08:04.900Z,100.00
2023-05-23T08:10:31.396Z,100.00
2023-05-23T08:13:00.528Z,100.00
2023-05-23T08:15:27.036Z,100.00
2023-05-23T08:17:56.976Z,100.00
2023-05-23T08:20:30.475Z,100.00
2023-05-23T08:22:58.935Z,100.00
2023-05-23T08:25:26.188Z,100.00
2023-05-23T08:27:53.427Z,100.00
2023-05-23T08:30:23.045Z,100.00
2023-05-23T08:32:49.639Z,100.00
2023-05-23T08:35:16.108Z,100.00
2023-05-23T08:37:43.039Z,100.00
2023-05-23T08:40:14.341Z,100.00
2023-05-23T08:42:40.962Z,100.00
2023-05-23T08:45:08.214Z,100.00
2023-05-23T08:47:37.807Z,100.00
2023-05-23T08:50:08.167Z,100.00
2023-05-23T08:52:35.794Z,100.00
2023-05-23T08:55:02.715Z,100.00
2023-05-23T08:57:30.707Z,100.00
2023-05-23T08:59:57.715Z,100.00
2023-05-23T09:02:24.888Z,100.00
2023-05-23T09:04:51.460Z,100.00
2023-05-23T09:07:19.059Z,100.00
2023-05-23T09:09:45.572Z,100.00
2023-05-23T09:12:13.472Z,100.00
2023-05-23T09:14:41.501Z,100.00
2023-05-23T09:17:07.949Z,100.00
2023-05-23T09:19:34.521Z,100.00
2023-05-23T09:22:02.818Z,100.00
2023-05-23T09:24:36.826Z,100.00
2023-05-23T09:27:05.427Z,100.00
2023-05-23T09:29:31.924Z,100.00
2023-05-23T09:32:18.065Z,100.00
2023-05-23T09:34:50.761Z,100.00
2023-05-23T09:37:19.341Z,100.00
2023-05-23T09:39:47.534Z,100.00
2023-05-23T09:42:20.837Z,100.00
2023-05-23T09:44:47.350Z,100.00
2023-05-23T09:47:16.144Z,100.00
2023-05-23T09:49:46.521Z,100.00
2023-05-23T09:52:13.572Z,100.00
2023-05-23T09:54:40.669Z,100.00
2023-05-23T09:57:10.729Z,100.00
2023-05-23T09:59:40.305Z,100.00
2023-05-23T10:02:08.353Z,100.00
2023-05-23T10:04:35.631Z,100.00
2023-05-23T10:07:11.748Z,100.00
2023-05-23T10:09:40.016Z,100.00
2023-05-23T10:12:36.995Z,100.00
2023-05-23T10:15:05.646Z,100.00
2023-05-23T10:17:47.451Z,100.00
2023-05-23T10:20:16.397Z,100.00
2023-05-23T10:22:43.326Z,100.00
2023-05-23T10:25:10.496Z,100.00
2023-05-23T10:27:40.683Z,100.00
2023-05-23T10:30:07.995Z,100.00
2023-05-23T10:32:36.219Z,100.00
2023-05-23T10:35:11.172Z,100.00
2023-05-23T10:37:46.974Z,100.00
2023-05-23T10:40:21.129Z,100.00
2023-05-23T10:43:03.217Z,100.00
2023-05-23T10:45:29.894Z,100.00
2023-05-23T10:47:56.560Z,100.00
2023-05-23T10:50:34.312Z,100.00
2023-05-23T10:53:05.542Z,100.00
2023-05-23T10:55:33.505Z,99.96
2023-05-23T10:58:13.299Z,98.04
2023-05-23T11:00:40.097Z,95.84
2023-05-23T11:03:08.978Z,97.75
2023-05-23T11:05:38.595Z,98.52
2023-05-23T11:08:09.089Z,98.53
2023-05-23T11:11:00.784Z,100.00
2023-05-23T11:13:53.048Z,100.00
2023-05-23T11:16:41.410Z,99.08
2023-05-23T11:19:20.072Z,98.04
2023-05-23T11:21:50.054Z,98.56
2023-05-23T11:24:17.639Z,96.59
2023-05-23T11:27:04.056Z,96.19
2023-05-23T11:29:30.857Z,95.54
2023-05-23T11:31:57.405Z,93.07
2023-05-23T11:34:27.190Z,93.59
2023-05-23T11:36:55.610Z,94.63
2023-05-23T11:39:22.738Z,90.30
2023-05-23T11:42:02.433Z,88.02
2023-05-23T11:44:29.241Z,89.00
2023-05-23T11:47:06.134Z,89.86
2023-05-23T11:49:35.714Z,90.72
2023-05-23T11:52:02.862Z,93.22
2023-05-23T11:54:29.721Z,94.43
2023-05-23T11:56:56.707Z,95.30
2023-05-23T11:59:25.998Z,95.63
2023-05-23T12:01:53.242Z,95.48
2023-05-23T12:04:19.798Z,95.36
2023-05-23T12:06:48.437Z,93.53
2023-05-23T12:09:15.248Z,90.96
2023-05-23T12:11:42.675Z,90.56
2023-05-23T12:14:14.481Z,89.19
2023-05-23T12:16:47.347Z,86.97
2023-05-23T12:19:14.960Z,83.91
2023-05-23T12:21:45.656Z,80.86
2023-05-23T12:24:19.632Z,80.80
2023-05-23T12:26:54.066Z,76.57
2023-05-23T12:29:22.410Z,74.46
2023-05-23T12:31:50.732Z,71.02
2023-05-23T12:34:17.596Z,68.77
2023-05-23T12:36:49.430Z,69.52
2023-05-23T12:39:16.505Z,69.76
2023-05-23T12:41:44.487Z,70.49
2023-05-23T12:44:11.518Z,69.24
2023-05-23T12:46:38.019Z,69.70
2023-05-23T12:49:05.808Z,71.01
2023-05-23T12:51:32.322Z,71.59
2023-05-23T12:53:59.097Z,72.93
2023-05-23T12:56:26.573Z,71.94
2023-05-23T12:58:53.966Z,70.81
2023-05-23T13:01:20.869Z,70.80
2023-05-23T13:03:47.521Z,70.12
2023-05-23T13:06:14.097Z,69.97
2023-05-23T13:08:40.576Z,69.47
2023-05-23T13:11:07.051Z,68.96
2023-05-23T13:13:33.832Z,68.16
2023-05-23T13:16:00.830Z,65.00
2023-05-23T13:18:27.301Z,63.65
2023-05-23T13:20:53.828Z,62.74
2023-05-23T13:23:20.791Z,61.77
2023-05-23T13:25:47.415Z,62.09
2023-05-23T13:28:14.034Z,62.20
2023-05-23T13:30:40.649Z,64.25
2023-05-23T13:33:07.497Z,64.99
2023-05-23T13:35:34.101Z,65.99
2023-05-23T13:38:00.616Z,66.53
2023-05-23T13:40:27.110Z,66.05
2023-05-23T13:42:53.677Z,64.39
2023-05-23T13:45:22.417Z,61.51
2023-05-23T13:47:49.036Z,61.41
2023-05-23T13:50:15.985Z,60.06
2023-05-23T13:52:45.663Z,61.93
2023-05-23T13:55:13.950Z,63.59
2023-05-23T13:57:40.432Z,63.26
2023-05-23T14:00:08.828Z,63.57
2023-05-23T14:02:35.431Z,61.80
2023-05-23T14:05:01.981Z,60.98
2023-05-23T14:07:28.444Z,60.80
2023-05-23T14:09:55.037Z,59.39
2023-05-23T14:12:21.480Z,60.52
2023-05-23T14:14:47.940Z,61.01
2023-05-23T14:17:17.580Z,59.73
2023-05-23T14:19:44.462Z,60.20
2023-05-23T14:22:11.423Z,59.93
2023-05-23T14:24:37.994Z,62.25
2023-05-23T14:27:04.898Z,61.27
2023-05-23T14:29:31.665Z,61.15
2023-05-23T14:31:59.967Z,61.52
2023-05-23T14:34:26.722Z,60.35
2023-05-23T14:36:53.745Z,59.41
2023-05-23T14:39:20.252Z,59.27
2023-05-23T14:41:46.877Z,59.91
2023-05-23T14:44:13.349Z,60.08
2023-05-23T14:46:39.932Z,59.21
2023-05-23T14:49:06.424Z,59.19
2023-05-23T14:51:46.144Z,59.89
2023-05-23T14:54:16.989Z,59.89
2023-05-23T14:56:43.523Z,59.04
2023-05-23T14:59:09.976Z,57.88
2023-05-23T15:01:39.392Z,58.72
2023-05-23T15:04:09.132Z,58.99
2023-05-23T15:06:37.096Z,58.78
2023-05-23T15:09:04.260Z,57.92
2023-05-23T15:11:32.077Z,57.13
2023-05-23T15:13:59.587Z,57.81
2023-05-23T15:16:26.090Z,58.45
2023-05-23T15:18:52.652Z,59.46
2023-05-23T15:21:19.148Z,59.44
2023-05-23T15:23:46.131Z,59.45
2023-05-23T15:26:12.610Z,59.86
2023-05-23T15:28:39.066Z,60.42
2023-05-23T15:31:05.525Z,59.83
2023-05-23T15:33:32.249Z,59.88
2023-05-23T15:35:59.386Z,59.64
2023-05-23T15:38:25.932Z,60.02
2023-05-23T15:40:54.561Z,59.16
2023-05-23T15:43:21.156Z,59.73
2023-05-23T15:45:49.858Z,60.08
2023-05-23T15:48:16.509Z,61.85
2023-05-23T15:50:43.853Z,63.38
2023-05-23T15:53:10.633Z,63.06
2023-05-23T15:55:39.781Z,64.04
2023-05-23T15:58:07.867Z,64.00
2023-05-23T16:00:34.328Z,63.94
2023-05-23T16:03:00.999Z,63.15
2023-05-23T16:05:27.559Z,62.68
2023-05-23T16:07:54.874Z,61.42
2023-05-23T16:10:21.412Z,60.53
2023-05-23T16:12:47.841Z,61.64
2023-05-23T16:15:14.262Z,60.77
2023-05-23T16:17:40.738Z,60.30
2023-05-23T16:20:08.097Z,59.95
2023-05-23T16:22:34.567Z,61.24
2023-05-23T16:25:01.021Z,61.20
2023-05-23T16:27:27.589Z,60.55
2023-05-23T16:29:54.066Z,59.12
2023-05-23T16:32:20.585Z,59.26
2023-05-23T16:34:50.278Z,59.12
2023-05-23T16:37:20.052Z,59.46
2023-05-23T16:39:46.801Z,59.31
2023-05-23T16:42:13.332Z,58.75
2023-05-23T16:44:39.927Z,58.46
2023-05-23T16:47:06.466Z,59.19
2023-05-23T16:49:32.993Z,60.05
2023-05-23T16:51:59.421Z,59.66
2023-05-23T16:54:26.060Z,60.51
2023-05-23T16:56:52.546Z,60.62
2023-05-23T16:59:19.153Z,60.10
2023-05-23T17:01:45.705Z,59.40
2023-05-23T17:04:12.291Z,59.87
2023-05-23T17:06:38.737Z,60.51
2023-05-23T17:09:05.413Z,59.97
2023-05-23T17:11:31.886Z,60.56
2023-05-23T17:13:58.324Z,61.33
2023-05-23T17:16:25.337Z,61.49
2023-05-23T17:18:51.893Z,60.85
2023-05-23T17:21:18.384Z,60.93
2023-05-23T17:23:45.921Z,60.86
2023-05-23T17:26:12.495Z,61.69
2023-05-23T17:28:38.983Z,60.27
2023-05-23T17:31:05.554Z,59.85
2023-05-23T17:33:32.046Z,58.51
2023-05-23T17:35:58.541Z,60.09
2023-05-23T17:38:25.062Z,60.51
2023-05-23T17:40:51.690Z,60.11
2023-05-23T17:43:18.258Z,59.69
2023-05-23T17:45:44.796Z,60.14
2023-05-23T17:48:11.489Z,60.81
2023-05-23T17:50:38.090Z,61.04
2023-05-23T17:53:04.628Z,60.49
2023-05-23T17:55:31.145Z,60.29
2023-05-23T17:57:57.661Z,60.93
2023-05-23T18:00:24.250Z,60.18
2023-05-23T18:02:51.775Z,59.61
2023-05-23T18:05:20.635Z,59.09
2023-05-23T18:07:47.675Z,59.50
2023-05-23T18:10:14.346Z,59.09
2023-05-23T18:12:41.072Z,60.14
2023-05-23T18:15:08.766Z,59.41
2023-05-23T18:17:35.474Z,59.90
2023-05-23T18:20:02.148Z,58.81
2023-05-23T18:22:31.554Z,58.88
2023-05-23T18:24:58.049Z,58.34
2023-05-23T18:27:24.694Z,58.38
2023-05-23T18:29:51.414Z,59.08
2023-05-23T18:32:17.934Z,59.37
2023-05-23T18:34:44.536Z,59.13
2023-05-23T18:37:11.115Z,59.60
2023-05-23T18:39:37.619Z,59.42
2023-05-23T18:42:04.259Z,59.67
2023-05-23T18:44:30.987Z,60.18
2023-05-23T18:46:57.541Z,61.17
2023-05-23T18:49:24.078Z,61.25
2023-05-23T18:51:51.753Z,62.36
2023-05-23T18:54:18.475Z,62.70
2023-05-23T18:56:45.198Z,61.97
2023-05-23T18:59:14.498Z,62.22
2023-05-23T19:01:41.093Z,61.42
2023-05-23T19:04:08.245Z,61.73
2023-05-23T19:06:34.784Z,62.35
2023-05-23T19:09:01.310Z,62.39
2023-05-23T19:11:28.042Z,62.73
2023-05-23T19:13:54.566Z,62.81
2023-05-23T19:16:21.677Z,63.40
2023-05-23T19:18:48.448Z,63.86
2023-05-23T19:21:15.021Z,64.35
2023-05-23T19:23:41.704Z,64.09
2023-05-23T19:26:08.186Z,64.03
2023-05-23T19:28:34.695Z,64.50
2023-05-23T19:31:01.427Z,64.27
2023-05-23T19:33:27.895Z,64.44
2023-05-23T19:35:54.914Z,64.94
2023-05-23T19:38:21.503Z,64.90
2023-05-23T19:40:48.082Z,64.98
2023-05-23T19:43:14.741Z,65.69
2023-05-23T19:45:41.304Z,65.64
2023-05-23T19:48:07.826Z,66.19
2023-05-23T19:50:34.521Z,67.08
2023-05-23T19:53:00.988Z,66.97
2023-05-23T19:55:27.538Z,68.03
2023-05-23T19:57:54.028Z,68.22
2023-05-23T20:00:20.740Z,68.36
2023-05-23T20:02:47.680Z,67.95
2023-05-23T20:05:14.214Z,68.17
2023-05-23T20:07:41.103Z,68.08
2023-05-23T20:10:08.018Z,68.48
2023-05-23T20:12:34.850Z,69.08
2023-05-23T20:15:01.403Z,69.68
2023-05-23T20:17:29.253Z,69.52
2023-05-23T20:19:55.886Z,68.79
2023-05-23T20:22:22.341Z,68.92
2023-05-23T20:24:48.884Z,69.24
2023-05-23T20:27:15.887Z,68.37
2023-05-23T20:29:42.364Z,69.03
2023-05-23T20:32:08.837Z,69.07
2023-05-23T20:34:35.667Z,69.42
2023-05-23T20:37:03.500Z,69.43
2023-05-23T20:39:30.469Z,69.85
2023-05-23T20:41:57.101Z,69.58
2023-05-23T20:44:23.704Z,69.60
2023-05-23T20:46:50.581Z,69.26
2023-05-23T20:49:17.647Z,69.13
2023-05-23T20:51:44.176Z,69.02
2023-05-23T20:54:12.724Z,69.58
2023-05-23T20:56:39.248Z,68.88
2023-05-23T20:59:05.708Z,69.47
2023-05-23T21:01:32.819Z,69.21
2023-05-23T21:03:59.413Z,69.47
2023-05-23T21:06:25.918Z,69.49
2023-05-23T21:08:52.372Z,69.41
2023-05-23T21:11:18.872Z,69.63
2023-05-23T21:13:45.631Z,69.71
2023-05-23T21:16:14.351Z,69.48
2023-05-23T21:18:41.010Z,68.95
2023-05-23T21:21:07.454Z,68.90
2023-05-23T21:23:33.974Z,68.60
2023-05-23T21:26:00.558Z,68.98
2023-05-23T21:28:27.467Z,69.13
2023-05-23T21:30:54.473Z,69.32
2023-05-23T21:33:21.086Z,69.67
2023-05-23T21:35:47.665Z,69.37
2023-05-23T21:38:14.149Z,69.66
2023-05-23T21:40:40.818Z,70.34
2023-05-23T21:43:07.540Z,69.60
2023-05-23T21:45:33.990Z,69.89
2023-05-23T21:48:00.544Z,69.59
2023-05-23T21:50:27.161Z,69.76
2023-05-23T21:52:54.113Z,69.93
2023-05-23T21:55:20.895Z,70.33
2023-05-23T21:57:47.379Z,70.22
2023-05-23T22:00:14.551Z,69.79
2023-05-23T22:02:41.389Z,69.89
2023-05-23T22:05:08.773Z,70.41
2023-05-23T22:07:35.322Z,70.26
2023-05-23T22:10:01.935Z,70.55
2023-05-23T22:12:28.737Z,71.03
2023-05-23T22:14:55.613Z,71.33
2023-05-23T22:17:22.588Z,72.70
2023-05-23T22:19:51.812Z,73.77
2023-05-23T22:22:18.997Z,74.60
2023-05-23T22:24:45.533Z,74.75
2023-05-23T22:27:12.250Z,75.26
2023-05-23T22:29:38.736Z,75.14
2023-05-23T22:32:05.388Z,74.57
2023-05-23T22:34:31.969Z,74.58
2023-05-23T22:37:00.266Z,74.91
2023-05-23T22:39:27.059Z,74.88
2023-05-23T22:41:53.866Z,75.21
2023-05-23T22:44:20.452Z,76.11
2023-05-23T22:46:46.960Z,76.65
2023-05-23T22:49:13.479Z,75.68
2023-05-23T22:51:40.034Z,76.13
2023-05-23T22:54:06.667Z,76.86
2023-05-23T22:56:33.187Z,76.40
2023-05-23T22:58:59.788Z,77.05
2023-05-23T23:01:26.356Z,77.26
2023-05-23T23:03:52.914Z,76.59
2023-05-23T23:06:20.967Z,76.66
2023-05-23T23:08:47.648Z,76.65
2023-05-23T23:11:14.211Z,78.02
2023-05-23T23:13:40.659Z,78.07
2023-05-23T23:16:08.588Z,78.50
2023-05-23T23:18:35.174Z,79.40
2023-05-23T23:21:01.655Z,79.84
2023-05-23T23:23:28.164Z,79.57
2023-05-23T23:25:54.718Z,79.89
2023-05-23T23:28:21.200Z,79.41
2023-05-23T23:30:47.740Z,79.81
2023-05-23T23:33:14.932Z,80.71
2023-05-23T23:35:41.626Z,81.07
2023-05-23T23:38:08.105Z,80.89
2023-05-23T23:40:34.668Z,80.83
2023-05-23T23:43:01.165Z,81.48
2023-05-23T23:45:27.688Z,82.30
2023-05-23T23:47:54.207Z,82.34
2023-05-23T23:50:21.343Z,82.49
2023-05-23T23:52:47.826Z,82.85
2023-05-23T23:55:14.300Z,83.04
2023-05-23T23:57:41.024Z,83.59
